createdAt,value
2023-06-04T00:00:13.792Z,451.00
2023-06-04T00:01:16.599Z,455.00
2023-06-04T00:02:13.911Z,454.00
2023-06-04T00:03:14.020Z,455.00
2023-06-04T00:04:13.957Z,453.00
2023-06-04T00:05:13.986Z,454.00
2023-06-04T00:06:14.006Z,451.00
2023-06-04T00:07:14.070Z,454.00
2023-06-04T00:08:14.072Z,454.00
2023-06-04T00:09:14.095Z,454.00
2023-06-04T00:10:14.103Z,455.00
2023-06-04T00:11:14.188Z,453.00
2023-06-04T00:12:14.160Z,452.00
2023-06-04T00:13:14.208Z,451.00
2023-06-04T00:14:14.227Z,452.00
2023-06-04T00:15:14.242Z,451.00
2023-06-04T00:16:14.319Z,450.00
2023-06-04T00:17:14.310Z,451.00
2023-06-04T00:18:14.364Z,453.00
2023-06-04T00:19:14.367Z,453.00
2023-06-04T00:20:14.383Z,452.00
2023-06-04T00:21:14.413Z,451.00
2023-06-04T00:22:14.452Z,452.00
2023-06-04T00:23:14.473Z,451.00
2023-06-04T00:24:14.521Z,451.00
2023-06-04T00:25:14.492Z,450.00
2023-06-04T00:26:14.521Z,450.00
2023-06-04T00:27:14.554Z,451.00
2023-06-04T00:28:14.604Z,453.00
2023-06-04T00:29:14.607Z,452.00
2023-06-04T00:30:14.626Z,451.00
2023-06-04T00:31:14.724Z,451.00
2023-06-04T00:32:14.806Z,450.00
2023-06-04T00:33:14.781Z,449.00
2023-06-04T00:34:14.737Z,450.00
2023-06-04T00:35:14.755Z,453.00
2023-06-04T00:36:14.786Z,455.00
2023-06-04T00:37:14.838Z,456.00
2023-06-04T00:38:14.842Z,456.00
2023-06-04T00:39:14.847Z,456.00
2023-06-04T00:40:14.888Z,457.00
2023-06-04T00:41:14.896Z,458.00
2023-06-04T00:42:14.940Z,458.00
2023-06-04T00:43:14.976Z,457.00
2023-06-04T00:44:14.983Z,458.00
2023-06-04T00:45:15.036Z,460.00
2023-06-04T00:46:15.173Z,459.00
2023-06-04T00:47:15.222Z,458.00
2023-06-04T00:48:15.328Z,460.00
2023-06-04T00:49:15.391Z,460.00
2023-06-04T00:50:15.502Z,461.00
2023-06-04T00:51:15.588Z,460.00
2023-06-04T00:52:15.695Z,458.00
2023-06-04T00:53:15.734Z,457.00
2023-06-04T00:54:15.852Z,456.00
2023-06-04T00:55:15.940Z,456.00
2023-06-04T00:56:15.995Z,456.00
2023-06-04T00:57:16.080Z,457.00
2023-06-04T00:58:16.123Z,459.00
2023-06-04T00:59:16.233Z,458.00
2023-06-04T01:00:16.291Z,454.00
2023-06-04T01:01:16.441Z,454.00
2023-06-04T01:02:16.446Z,453.00
2023-06-04T01:03:16.552Z,453.00
2023-06-04T01:04:16.570Z,454.00
2023-06-04T01:05:16.643Z,457.00
2023-06-04T01:06:16.695Z,458.00
2023-06-04T01:07:16.753Z,459.00
2023-06-04T01:08:16.801Z,460.00
2023-06-04T01:09:16.857Z,459.00
2023-06-04T01:10:16.931Z,457.00
2023-06-04T01:11:16.965Z,456.00
2023-06-04T01:12:17.009Z,457.00
2023-06-04T01:13:17.048Z,458.00
2023-06-04T01:14:17.136Z,455.00
2023-06-04T01:15:17.202Z,454.00
2023-06-04T01:16:17.234Z,452.00
2023-06-04T01:17:17.400Z,452.00
2023-06-04T01:18:17.355Z,453.00
2023-06-04T01:19:17.475Z,451.00
2023-06-04T01:20:17.545Z,453.00
2023-06-04T01:21:17.643Z,452.00
2023-06-04T01:22:17.763Z,453.00
2023-06-04T01:23:17.820Z,452.00
2023-06-04T01:24:17.919Z,450.00
2023-06-04T01:25:17.971Z,447.00
2023-06-04T01:26:18.087Z,449.00
2023-06-04T01:27:18.126Z,451.00
2023-06-04T01:28:18.268Z,453.00
2023-06-04T01:29:18.239Z,458.00
2023-06-04T01:30:18.273Z,459.00
2023-06-04T01:31:18.342Z,457.00
2023-06-04T01:32:18.718Z,454.00
2023-06-04T01:33:18.404Z,452.00
2023-06-04T01:34:18.477Z,454.00
2023-06-04T01:35:18.524Z,452.00
2023-06-04T01:36:18.533Z,450.00
2023-06-04T01:37:18.558Z,447.00
2023-06-04T01:38:18.608Z,445.00
2023-06-04T01:39:18.648Z,445.00
2023-06-04T01:40:18.694Z,448.00
2023-06-04T01:41:18.748Z,448.00
2023-06-04T01:42:18.803Z,449.00
2023-06-04T01:43:18.832Z,448.00
2023-06-04T01:44:18.876Z,449.00
2023-06-04T01:45:18.930Z,448.00
2023-06-04T01:46:18.999Z,448.00
2023-06-04T01:47:19.004Z,449.00
2023-06-04T01:48:19.053Z,451.00
2023-06-04T01:49:19.119Z,451.00
2023-06-04T01:50:19.158Z,451.00
2023-06-04T01:51:19.208Z,450.00
2023-06-04T01:52:19.247Z,447.00
2023-06-04T01:53:19.287Z,447.00
2023-06-04T01:54:19.313Z,451.00
2023-06-04T01:55:19.350Z,452.00
2023-06-04T01:56:19.394Z,452.00
2023-06-04T01:57:19.476Z,451.00
2023-06-04T01:58:19.525Z,450.00
2023-06-04T01:59:19.537Z,450.00
2023-06-04T02:00:19.569Z,450.00
2023-06-04T02:01:19.656Z,450.00
2023-06-04T02:02:19.745Z,449.00
2023-06-04T02:03:19.888Z,447.00
2023-06-04T02:04:19.907Z,447.00
2023-06-04T02:05:19.949Z,446.00
2023-06-04T02:06:20.054Z,446.00
2023-06-04T02:07:20.101Z,447.00
2023-06-04T02:08:20.269Z,446.00
2023-06-04T02:09:20.275Z,446.00
2023-06-04T02:10:20.388Z,447.00
2023-06-04T02:11:20.468Z,446.00
2023-06-04T02:12:20.549Z,446.00
2023-06-04T02:13:20.662Z,448.00
2023-06-04T02:14:20.744Z,447.00
2023-06-04T02:15:20.818Z,445.00
2023-06-04T02:16:20.888Z,446.00
2023-06-04T02:17:20.911Z,446.00
2023-06-04T02:18:20.967Z,448.00
2023-06-04T02:19:21.014Z,451.00
2023-06-04T02:20:21.073Z,453.00
2023-06-04T02:21:21.113Z,456.00
2023-06-04T02:22:21.166Z,454.00
2023-06-04T02:23:21.241Z,453.00
2023-06-04T02:24:21.209Z,453.00
2023-06-04T02:25:21.261Z,453.00
2023-06-04T02:26:21.329Z,455.00
2023-06-04T02:27:21.320Z,455.00
2023-06-04T02:28:21.362Z,452.00
2023-06-04T02:29:21.375Z,450.00
2023-06-04T02:30:21.423Z,450.00
2023-06-04T02:31:21.497Z,450.00
2023-06-04T02:32:21.586Z,451.00
2023-06-04T02:33:21.552Z,452.00
2023-06-04T02:34:21.597Z,452.00
2023-06-04T02:35:21.636Z,453.00
2023-06-04T02:36:21.677Z,452.00
2023-06-04T02:37:21.714Z,452.00
2023-06-04T02:38:21.779Z,453.00
2023-06-04T02:39:21.922Z,452.00
2023-06-04T02:40:21.879Z,451.00
2023-06-04T02:41:21.930Z,453.00
2023-06-04T02:42:21.982Z,453.00
2023-06-04T02:43:22.021Z,453.00
2023-06-04T02:44:22.066Z,456.00
2023-06-04T02:45:22.124Z,458.00
2023-06-04T02:46:22.207Z,457.00
2023-06-04T02:47:22.204Z,455.00
2023-06-04T02:48:22.279Z,454.00
2023-06-04T02:49:22.304Z,454.00
2023-06-04T02:50:22.360Z,453.00
2023-06-04T02:51:22.427Z,451.00
2023-06-04T02:52:22.445Z,451.00
2023-06-04T02:53:22.518Z,451.00
2023-06-04T02:54:22.590Z,451.00
2023-06-04T02:55:22.635Z,451.00
2023-06-04T02:56:22.671Z,451.00
2023-06-04T02:57:22.723Z,451.00
2023-06-04T02:58:22.791Z,453.00
2023-06-04T02:59:22.872Z,453.00
2023-06-04T03:00:22.889Z,454.00
2023-06-04T03:01:22.991Z,455.00
2023-06-04T03:02:23.073Z,454.00
2023-06-04T03:03:23.187Z,452.00
2023-06-04T03:04:23.161Z,452.00
2023-06-04T03:05:23.227Z,454.00
2023-06-04T03:06:23.296Z,454.00
2023-06-04T03:07:23.341Z,452.00
2023-06-04T03:08:23.477Z,451.00
2023-06-04T03:09:23.498Z,450.00
2023-06-04T03:10:23.561Z,449.00
2023-06-04T03:11:23.623Z,449.00
2023-06-04T03:12:23.688Z,449.00
2023-06-04T03:13:23.780Z,448.00
2023-06-04T03:14:23.800Z,449.00
2023-06-04T03:15:23.895Z,447.00
2023-06-04T03:16:24.010Z,447.00
2023-06-04T03:17:24.039Z,447.00
2023-06-04T03:18:24.088Z,448.00
2023-06-04T03:19:24.167Z,447.00
2023-06-04T03:20:24.191Z,447.00
2023-06-04T03:21:24.320Z,450.00
2023-06-04T03:22:24.332Z,448.00
2023-06-04T03:23:24.383Z,448.00
2023-06-04T03:24:24.423Z,451.00
2023-06-04T03:25:24.464Z,452.00
2023-06-04T03:26:24.583Z,451.00
2023-06-04T03:27:24.608Z,449.00
2023-06-04T03:28:24.686Z,448.00
2023-06-04T03:29:24.758Z,449.00
2023-06-04T03:30:24.824Z,446.00
2023-06-04T03:31:24.888Z,447.00
2023-06-04T03:32:24.980Z,448.00
2023-06-04T03:33:24.985Z,450.00
2023-06-04T03:34:25.034Z,453.00
2023-06-04T03:35:25.101Z,454.00
2023-06-04T03:36:25.160Z,456.00
2023-06-04T03:37:25.236Z,456.00
2023-06-04T03:38:25.250Z,455.00
2023-06-04T03:39:25.335Z,454.00
2023-06-04T03:40:26.308Z,453.00
2023-06-04T03:41:25.435Z,453.00
2023-06-04T03:42:25.487Z,453.00
2023-06-04T03:43:25.563Z,451.00
2023-06-04T03:44:25.597Z,452.00
2023-06-04T03:45:25.657Z,451.00
2023-06-04T03:46:25.768Z,453.00
2023-06-04T03:47:25.789Z,452.00
2023-06-04T03:48:25.842Z,449.00
2023-06-04T03:49:25.882Z,449.00
2023-06-04T03:50:25.946Z,450.00
2023-06-04T03:51:26.002Z,447.00
2023-06-04T03:52:26.093Z,448.00
2023-06-04T03:53:26.165Z,451.00
2023-06-04T03:54:26.201Z,446.00
2023-06-04T03:55:26.288Z,444.00
2023-06-04T03:56:26.338Z,445.00
2023-06-04T03:57:26.397Z,447.00
2023-06-04T03:58:26.437Z,447.00
2023-06-04T03:59:26.501Z,448.00
2023-06-04T04:00:26.562Z,449.00
2023-06-04T04:01:26.630Z,449.00
2023-06-04T04:02:26.816Z,449.00
2023-06-04T04:03:26.907Z,449.00
2023-06-04T04:04:26.899Z,449.00
2023-06-04T04:05:26.839Z,449.00
2023-06-04T04:06:26.853Z,450.00
2023-06-04T04:07:26.935Z,448.00
2023-06-04T04:08:26.984Z,448.00
2023-06-04T04:09:27.021Z,449.00
2023-06-04T04:10:27.089Z,449.00
2023-06-04T04:11:27.117Z,452.00
2023-06-04T04:12:27.257Z,454.00
2023-06-04T04:13:27.258Z,453.00
2023-06-04T04:14:27.258Z,452.00
2023-06-04T04:15:27.322Z,452.00
2023-06-04T04:16:27.412Z,450.00
2023-06-04T04:17:27.466Z,449.00
2023-06-04T04:18:27.487Z,450.00
2023-06-04T04:19:27.546Z,451.00
2023-06-04T04:20:27.557Z,452.00
2023-06-04T04:21:27.637Z,452.00
2023-06-04T04:22:27.655Z,450.00
2023-06-04T04:23:27.756Z,450.00
2023-06-04T04:24:27.795Z,452.00
2023-06-04T04:25:27.840Z,454.00
2023-06-04T04:26:27.906Z,452.00
2023-06-04T04:27:27.945Z,455.00
2023-06-04T04:28:28.032Z,456.00
2023-06-04T04:29:28.058Z,456.00
2023-06-04T04:30:28.082Z,457.00
2023-06-04T04:31:28.203Z,456.00
2023-06-04T04:32:28.235Z,455.00
2023-06-04T04:33:28.304Z,458.00
2023-06-04T04:34:28.399Z,460.00
2023-06-04T04:35:28.468Z,460.00
2023-06-04T04:36:28.558Z,462.00
2023-06-04T04:37:28.640Z,460.00
2023-06-04T04:38:28.726Z,459.00
2023-06-04T04:39:28.846Z,459.00
2023-06-04T04:40:28.918Z,456.00
2023-06-04T04:41:29.043Z,453.00
2023-06-04T04:42:29.142Z,452.00
2023-06-04T04:43:29.188Z,454.00
2023-06-04T04:44:29.289Z,452.00
2023-06-04T04:45:29.340Z,453.00
2023-06-04T04:46:29.490Z,454.00
2023-06-04T04:47:29.432Z,454.00
2023-06-04T04:48:29.477Z,454.00
2023-06-04T04:49:29.591Z,458.00
2023-06-04T04:50:29.559Z,458.00
2023-06-04T04:51:29.614Z,460.00
2023-06-04T04:52:29.649Z,459.00
2023-06-04T04:53:29.713Z,457.00
2023-06-04T04:54:29.742Z,456.00
2023-06-04T04:55:29.796Z,457.00
2023-06-04T04:56:29.821Z,458.00
2023-06-04T04:57:29.877Z,459.00
2023-06-04T04:58:29.907Z,457.00
2023-06-04T04:59:29.964Z,455.00
2023-06-04T05:00:29.992Z,455.00
2023-06-04T05:01:30.072Z,455.00
2023-06-04T05:02:30.118Z,455.00
2023-06-04T05:03:30.127Z,457.00
2023-06-04T05:04:30.226Z,454.00
2023-06-04T05:05:30.248Z,454.00
2023-06-04T05:06:30.259Z,454.00
2023-06-04T05:07:30.331Z,455.00
2023-06-04T05:08:30.348Z,454.00
2023-06-04T05:09:30.414Z,454.00
2023-06-04T05:10:30.474Z,452.00
2023-06-04T05:11:30.506Z,453.00
2023-06-04T05:12:30.543Z,452.00
2023-06-04T05:13:30.598Z,454.00
2023-06-04T05:14:30.648Z,455.00
2023-06-04T05:15:30.739Z,454.00
2023-06-04T05:16:30.778Z,453.00
2023-06-04T05:17:30.896Z,453.00
2023-06-04T05:18:30.846Z,450.00
2023-06-04T05:19:30.869Z,447.00
2023-06-04T05:20:30.945Z,448.00
2023-06-04T05:21:30.996Z,447.00
2023-06-04T05:22:31.044Z,447.00
2023-06-04T05:23:31.089Z,449.00
2023-06-04T05:24:31.099Z,449.00
2023-06-04T05:25:31.188Z,451.00
2023-06-04T05:26:31.220Z,452.00
2023-06-04T05:27:31.241Z,452.00
2023-06-04T05:28:31.311Z,451.00
2023-06-04T05:29:31.359Z,451.00
2023-06-04T05:30:31.390Z,453.00
2023-06-04T05:31:31.489Z,455.00
2023-06-04T05:32:31.553Z,454.00
2023-06-04T05:33:31.569Z,454.00
2023-06-04T05:34:31.638Z,453.00
2023-06-04T05:35:31.653Z,452.00
2023-06-04T05:36:31.742Z,454.00
2023-06-04T05:37:31.792Z,455.00
2023-06-04T05:38:31.902Z,454.00
2023-06-04T05:39:31.914Z,454.00
2023-06-04T05:40:31.950Z,454.00
2023-06-04T05:41:32.017Z,455.00
2023-06-04T05:42:32.040Z,455.00
2023-06-04T05:43:32.117Z,455.00
2023-06-04T05:44:32.162Z,454.00
2023-06-04T05:45:32.220Z,455.00
2023-06-04T05:46:32.391Z,454.00
2023-06-04T05:47:32.415Z,454.00
2023-06-04T05:48:32.444Z,454.00
2023-06-04T05:49:32.497Z,455.00
2023-06-04T05:50:32.541Z,454.00
2023-06-04T05:51:32.614Z,454.00
2023-06-04T05:52:32.648Z,452.00
2023-06-04T05:53:32.715Z,454.00
2023-06-04T05:54:33.363Z,453.00
2023-06-04T05:55:32.821Z,453.00
2023-06-04T05:56:32.886Z,450.00
2023-06-04T05:57:32.906Z,447.00
2023-06-04T05:58:32.966Z,447.00
2023-06-04T05:59:33.043Z,449.00
2023-06-04T06:00:33.101Z,449.00
2023-06-04T06:01:33.172Z,451.00
2023-06-04T06:02:33.333Z,452.00
2023-06-04T06:03:33.324Z,453.00
2023-06-04T06:04:33.391Z,452.00
2023-06-04T06:05:33.354Z,453.00
2023-06-04T06:06:33.421Z,455.00
2023-06-04T06:07:33.560Z,456.00
2023-06-04T06:08:33.552Z,454.00
2023-06-04T06:09:33.579Z,452.00
2023-06-04T06:10:33.613Z,451.00
2023-06-04T06:11:33.683Z,450.00
2023-06-04T06:12:33.740Z,449.00
2023-06-04T06:13:33.779Z,447.00
2023-06-04T06:14:33.839Z,449.00
2023-06-04T06:15:33.926Z,448.00
2023-06-04T06:16:33.937Z,447.00
2023-06-04T06:17:34.073Z,446.00
2023-06-04T06:18:34.124Z,447.00
2023-06-04T06:19:34.120Z,447.00
2023-06-04T06:20:34.188Z,449.00
2023-06-04T06:21:34.274Z,450.00
2023-06-04T06:22:34.292Z,451.00
2023-06-04T06:23:34.377Z,450.00
2023-06-04T06:24:34.435Z,453.00
2023-06-04T06:25:34.474Z,453.00
2023-06-04T06:26:34.546Z,450.00
2023-06-04T06:27:34.599Z,446.00
2023-06-04T06:28:34.657Z,447.00
2023-06-04T06:29:34.708Z,447.00
2023-06-04T06:30:34.794Z,445.00
2023-06-04T06:31:34.915Z,443.00
2023-06-04T06:32:34.955Z,445.00
2023-06-04T06:33:34.969Z,443.00
2023-06-04T06:34:35.018Z,444.00
2023-06-04T06:35:35.073Z,445.00
2023-06-04T06:36:35.149Z,443.00
2023-06-04T06:37:35.185Z,442.00
2023-06-04T06:38:35.232Z,444.00
2023-06-04T06:39:35.278Z,442.00
2023-06-04T06:40:35.302Z,441.00
2023-06-04T06:41:35.361Z,444.00
2023-06-04T06:42:35.427Z,445.00
2023-06-04T06:43:35.463Z,447.00
2023-06-04T06:44:35.510Z,447.00
2023-06-04T06:45:37.871Z,445.00
2023-06-04T06:46:35.673Z,445.00
2023-06-04T06:47:35.646Z,444.00
2023-06-04T06:48:35.719Z,445.00
2023-06-04T06:49:35.773Z,446.00
2023-06-04T06:50:35.823Z,443.00
2023-06-04T06:51:35.892Z,440.00
2023-06-04T06:52:35.972Z,445.00
2023-06-04T06:53:36.002Z,446.00
2023-06-04T06:54:36.057Z,444.00
2023-06-04T06:55:36.120Z,442.00
2023-06-04T06:56:36.146Z,445.00
2023-06-04T06:57:36.197Z,444.00
2023-06-04T06:58:36.222Z,443.00
2023-06-04T06:59:36.260Z,445.00
2023-06-04T07:00:36.372Z,446.00
2023-06-04T07:01:36.522Z,447.00
2023-06-04T07:02:36.488Z,445.00
2023-06-04T07:03:36.473Z,446.00
2023-06-04T07:04:36.467Z,447.00
2023-06-04T07:05:36.511Z,447.00
2023-06-04T07:06:36.530Z,447.00
2023-06-04T07:07:36.607Z,446.00
2023-06-04T07:08:36.624Z,445.00
2023-06-04T07:09:36.681Z,444.00
2023-06-04T07:10:36.735Z,442.00
2023-06-04T07:11:36.761Z,441.00
2023-06-04T07:12:36.815Z,438.00
2023-06-04T07:13:36.866Z,438.00
2023-06-04T07:14:36.922Z,437.00
2023-06-04T07:15:36.934Z,440.00
2023-06-04T07:16:37.033Z,441.00
2023-06-04T07:17:37.133Z,443.00
2023-06-04T07:18:37.110Z,442.00
2023-06-04T07:19:37.197Z,443.00
2023-06-04T07:20:37.284Z,441.00
2023-06-04T07:21:37.369Z,441.00
2023-06-04T07:22:37.429Z,445.00
2023-06-04T07:23:37.548Z,444.00
2023-06-04T07:24:37.597Z,445.00
2023-06-04T07:25:37.690Z,446.00
2023-06-04T07:26:37.779Z,447.00
2023-06-04T07:27:37.884Z,445.00
2023-06-04T07:28:37.943Z,445.00
2023-06-04T07:29:38.063Z,445.00
2023-06-04T07:30:38.161Z,447.00
2023-06-04T07:31:38.249Z,446.00
2023-06-04T07:32:38.383Z,444.00
2023-06-04T07:33:38.389Z,444.00
2023-06-04T07:34:38.477Z,441.00
2023-06-04T07:35:38.572Z,441.00
2023-06-04T07:36:39.399Z,442.00
2023-06-04T07:37:38.708Z,441.00
2023-06-04T07:38:38.821Z,443.00
2023-06-04T07:39:38.873Z,444.00
2023-06-04T07:40:38.946Z,442.00
2023-06-04T07:41:39.065Z,441.00
2023-06-04T07:42:39.115Z,438.00
2023-06-04T07:43:39.205Z,436.00
2023-06-04T07:44:39.320Z,435.00
2023-06-04T07:45:39.385Z,436.00
2023-06-04T07:46:39.674Z,436.00
2023-06-04T07:47:39.680Z,438.00
2023-06-04T07:48:39.623Z,439.00
2023-06-04T07:49:44.592Z,434.00
2023-06-04T07:50:41.638Z,432.00
2023-06-04T07:51:39.770Z,431.00
2023-06-04T07:52:39.781Z,431.00
2023-06-04T07:53:39.851Z,434.00
2023-06-04T07:54:39.864Z,431.00
2023-06-04T07:55:39.862Z,432.00
2023-06-04T07:56:39.917Z,432.00
2023-06-04T07:57:39.952Z,431.00
2023-06-04T07:58:39.981Z,433.00
2023-06-04T07:59:39.993Z,432.00
2023-06-04T08:00:40.071Z,431.00
2023-06-04T08:01:40.111Z,428.00
2023-06-04T08:02:40.298Z,427.00
2023-06-04T08:03:40.420Z,428.00
2023-06-04T08:04:40.425Z,430.00
2023-06-04T08:05:40.408Z,430.00
2023-06-04T08:06:40.451Z,430.00
2023-06-04T08:07:40.534Z,429.00
2023-06-04T08:08:40.632Z,429.00
2023-06-04T08:09:40.704Z,431.00
2023-06-04T08:10:40.767Z,432.00
2023-06-04T08:11:40.852Z,429.00
2023-06-04T08:12:40.922Z,431.00
2023-06-04T08:13:40.967Z,432.00
2023-06-04T08:14:41.060Z,430.00
2023-06-04T08:15:41.141Z,429.00
2023-06-04T08:16:41.251Z,425.00
2023-06-04T08:17:41.358Z,425.00
2023-06-04T08:18:41.456Z,426.00
2023-06-04T08:19:41.437Z,427.00
2023-06-04T08:20:41.507Z,429.00
2023-06-04T08:21:41.548Z,430.00
2023-06-04T08:22:41.644Z,430.00
2023-06-04T08:23:41.778Z,429.00
2023-06-04T08:24:41.801Z,428.00
2023-06-04T08:25:41.868Z,428.00
2023-06-04T08:26:41.955Z,427.00
2023-06-04T08:27:42.003Z,424.00
2023-06-04T08:28:42.111Z,425.00
2023-06-04T08:29:42.164Z,424.00
2023-06-04T08:30:42.199Z,424.00
2023-06-04T08:31:42.354Z,424.00
2023-06-04T08:32:42.407Z,423.00
2023-06-04T08:33:42.377Z,424.00
2023-06-04T08:34:42.405Z,423.00
2023-06-04T08:35:42.456Z,424.00
2023-06-04T08:36:42.486Z,424.00
2023-06-04T08:37:42.563Z,422.00
2023-06-04T08:38:43.107Z,424.00
2023-06-04T08:39:42.628Z,425.00
2023-06-04T08:40:42.683Z,424.00
2023-06-04T08:41:42.755Z,421.00
2023-06-04T08:42:42.818Z,422.00
2023-06-04T08:43:42.812Z,420.00
2023-06-04T08:44:42.880Z,420.00
2023-06-04T08:45:43.008Z,422.00
2023-06-04T08:46:43.025Z,421.00
2023-06-04T08:47:43.123Z,421.00
2023-06-04T08:48:43.158Z,421.00
2023-06-04T08:49:43.258Z,421.00
2023-06-04T08:50:43.306Z,421.00
2023-06-04T08:51:43.359Z,420.00
2023-06-04T08:52:43.429Z,422.00
2023-06-04T08:53:43.542Z,419.00
2023-06-04T08:54:43.601Z,420.00
2023-06-04T08:55:43.674Z,419.00
2023-06-04T08:56:43.714Z,421.00
2023-06-04T08:57:43.804Z,423.00
2023-06-04T08:58:43.850Z,423.00
2023-06-04T08:59:43.900Z,424.00
2023-06-04T09:00:43.971Z,425.00
2023-06-04T09:01:44.092Z,422.00
2023-06-04T09:02:44.161Z,421.00
2023-06-04T09:03:44.176Z,421.00
2023-06-04T09:04:44.209Z,423.00
2023-06-04T09:05:44.295Z,423.00
2023-06-04T09:06:44.370Z,422.00
2023-06-04T09:07:44.404Z,421.00
2023-06-04T09:08:48.728Z,421.00
2023-06-04T09:09:45.570Z,422.00
2023-06-04T09:10:44.476Z,419.00
2023-06-04T09:11:44.497Z,420.00
2023-06-04T09:12:44.540Z,420.00
2023-06-04T09:13:44.547Z,420.00
2023-06-04T09:14:44.573Z,417.00
2023-06-04T09:15:44.648Z,421.00
2023-06-04T09:16:44.605Z,421.00
2023-06-04T09:17:44.722Z,421.00
2023-06-04T09:18:44.675Z,422.00
2023-06-04T09:19:44.685Z,422.00
2023-06-04T09:20:44.704Z,422.00
2023-06-04T09:21:44.740Z,423.00
2023-06-04T09:22:44.767Z,421.00
2023-06-04T09:23:44.775Z,418.00
2023-06-04T09:24:44.795Z,418.00
2023-06-04T09:25:44.810Z,419.00
2023-06-04T09:26:44.806Z,420.00
2023-06-04T09:27:44.843Z,422.00
2023-06-04T09:28:44.852Z,422.00
2023-06-04T09:29:44.899Z,422.00
2023-06-04T09:30:44.907Z,423.00
2023-06-04T09:31:45.174Z,424.00
2023-06-04T09:32:45.040Z,426.00
2023-06-04T09:33:45.064Z,425.00
2023-06-04T09:34:45.098Z,423.00
2023-06-04T09:35:45.136Z,423.00
2023-06-04T09:36:45.231Z,421.00
2023-06-04T09:37:45.257Z,422.00
2023-06-04T09:38:45.285Z,424.00
2023-06-04T09:39:45.318Z,427.00
2023-06-04T09:40:45.352Z,427.00
2023-06-04T09:41:45.427Z,424.00
2023-06-04T09:42:45.436Z,422.00
2023-06-04T09:43:45.468Z,423.00
2023-06-04T09:44:45.547Z,423.00
2023-06-04T09:45:45.560Z,421.00
2023-06-04T09:46:45.688Z,420.00
2023-06-04T09:47:45.739Z,420.00
2023-06-04T09:48:45.645Z,419.00
2023-06-04T09:49:45.706Z,420.00
2023-06-04T09:50:45.763Z,420.00
2023-06-04T09:51:45.766Z,420.00
2023-06-04T09:52:45.805Z,421.00
2023-06-04T09:53:45.808Z,421.00
2023-06-04T09:54:45.873Z,420.00
2023-06-04T09:55:45.897Z,420.00
2023-06-04T09:56:45.938Z,420.00
2023-06-04T09:57:45.985Z,416.00
2023-06-04T09:58:46.023Z,414.00
2023-06-04T09:59:46.053Z,415.00
2023-06-04T10:00:46.200Z,417.00
2023-06-04T10:01:46.148Z,419.00
2023-06-04T10:02:46.220Z,419.00
2023-06-04T10:03:46.211Z,417.00
2023-06-04T10:04:46.217Z,417.00
2023-06-04T10:05:46.249Z,418.00
2023-06-04T10:06:46.279Z,416.00
2023-06-04T10:07:46.308Z,415.00
2023-06-04T10:08:46.373Z,413.00
2023-06-04T10:09:46.390Z,414.00
2023-06-04T10:10:46.434Z,415.00
2023-06-04T10:11:46.487Z,418.00
2023-06-04T10:12:46.514Z,419.00
2023-06-04T10:13:46.570Z,420.00
2023-06-04T10:14:46.576Z,418.00
2023-06-04T10:15:46.579Z,417.00
2023-06-04T10:16:46.675Z,417.00
2023-06-04T10:17:46.679Z,415.00
2023-06-04T10:18:46.690Z,416.00
2023-06-04T10:19:46.701Z,417.00
2023-06-04T10:20:46.761Z,417.00
2023-06-04T10:21:46.779Z,417.00
2023-06-04T10:22:46.829Z,418.00
2023-06-04T10:23:46.884Z,421.00
2023-06-04T10:24:46.886Z,422.00
2023-06-04T10:25:46.893Z,422.00
2023-06-04T10:26:46.908Z,423.00
2023-06-04T10:27:46.968Z,424.00
2023-06-04T10:28:46.968Z,425.00
2023-06-04T10:29:47.018Z,424.00
2023-06-04T10:30:47.031Z,421.00
2023-06-04T10:31:47.085Z,419.00
2023-06-04T10:32:47.107Z,416.00
2023-06-04T10:33:47.080Z,416.00
2023-06-04T10:34:47.121Z,414.00
2023-06-04T10:35:47.154Z,417.00
2023-06-04T10:36:47.208Z,416.00
2023-06-04T10:37:47.211Z,417.00
2023-06-04T10:38:47.303Z,415.00
2023-06-04T10:39:47.353Z,416.00
2023-06-04T10:40:47.433Z,415.00
2023-06-04T10:41:48.002Z,417.00
2023-06-04T10:42:47.528Z,417.00
2023-06-04T10:43:47.521Z,416.00
2023-06-04T10:44:47.555Z,420.00
2023-06-04T10:45:47.599Z,421.00
2023-06-04T10:46:47.591Z,423.00
2023-06-04T10:47:47.709Z,423.00
2023-06-04T10:48:47.661Z,422.00
2023-06-04T10:49:47.690Z,420.00
2023-06-04T10:50:47.704Z,421.00
2023-06-04T10:51:47.749Z,420.00
2023-06-04T10:52:47.775Z,417.00
2023-06-04T10:53:47.763Z,417.00
2023-06-04T10:54:47.804Z,419.00
2023-06-04T10:55:47.816Z,422.00
2023-06-04T10:56:47.858Z,422.00
2023-06-04T10:57:47.870Z,424.00
2023-06-04T10:58:47.910Z,422.00
2023-06-04T10:59:47.887Z,425.00
2023-06-04T11:00:47.920Z,420.00
2023-06-04T11:01:47.974Z,421.00
2023-06-04T11:02:48.026Z,422.00
2023-06-04T11:03:48.014Z,420.00
2023-06-04T11:04:47.994Z,421.00
2023-06-04T11:05:48.052Z,422.00
2023-06-04T11:06:48.048Z,422.00
2023-06-04T11:07:48.095Z,420.00
2023-06-04T11:08:48.091Z,420.00
2023-06-04T11:09:48.145Z,419.00
2023-06-04T11:10:48.131Z,416.00
2023-06-04T11:11:48.206Z,415.00
2023-06-04T11:12:48.266Z,416.00
2023-06-04T11:13:48.197Z,415.00
2023-06-04T11:14:48.253Z,414.00
2023-06-04T11:15:48.319Z,415.00
2023-06-04T11:16:48.307Z,418.00
2023-06-04T11:17:48.358Z,417.00
2023-06-04T11:18:48.333Z,417.00
2023-06-04T11:19:48.368Z,415.00
2023-06-04T11:20:48.398Z,415.00
2023-06-04T11:21:48.419Z,415.00
2023-06-04T11:22:48.472Z,417.00
2023-06-04T11:23:48.512Z,416.00
2023-06-04T11:24:48.479Z,415.00
2023-06-04T11:25:48.513Z,415.00
2023-06-04T11:27:00.331Z,415.00
2023-06-04T11:27:49.549Z,411.00
2023-06-04T11:28:48.550Z,411.00
2023-06-04T11:29:48.597Z,410.00
2023-06-04T11:30:48.586Z,409.00
2023-06-04T11:31:48.639Z,406.00
2023-06-04T11:32:48.661Z,409.00
2023-06-04T11:33:48.651Z,410.00
2023-06-04T11:34:48.632Z,408.00
2023-06-04T11:35:48.685Z,410.00
2023-06-04T11:36:48.714Z,413.00
2023-06-04T11:37:48.692Z,414.00
2023-06-04T11:38:48.721Z,413.00
2023-06-04T11:39:48.729Z,417.00
2023-06-04T11:40:48.747Z,416.00
2023-06-04T11:41:48.764Z,414.00
2023-06-04T11:42:48.855Z,411.00
2023-06-04T11:43:48.762Z,409.00
2023-06-04T11:44:48.795Z,408.00
2023-06-04T11:45:48.821Z,410.00
2023-06-04T11:46:48.843Z,413.00
2023-06-04T11:47:48.926Z,415.00
2023-06-04T11:48:48.925Z,417.00
2023-06-04T11:49:48.837Z,416.00
2023-06-04T11:50:48.868Z,418.00
2023-06-04T11:51:48.893Z,418.00
2023-06-04T11:52:48.935Z,417.00
2023-06-04T11:53:48.929Z,415.00
2023-06-04T11:54:48.925Z,416.00
2023-06-04T11:55:48.949Z,415.00
2023-06-04T11:56:48.967Z,414.00
2023-06-04T11:57:48.958Z,415.00
2023-06-04T11:58:48.985Z,416.00
2023-06-04T11:59:49.016Z,414.00
2023-06-04T12:00:49.048Z,416.00
2023-06-04T12:01:49.061Z,415.00
2023-06-04T12:02:49.136Z,415.00
2023-06-04T12:03:49.075Z,414.00
2023-06-04T12:04:49.083Z,416.00
2023-06-04T12:05:49.091Z,417.00
2023-06-04T12:06:49.123Z,416.00
2023-06-04T12:07:49.195Z,416.00
2023-06-04T12:08:49.158Z,412.00
2023-06-04T12:09:49.127Z,413.00
2023-06-04T12:10:49.172Z,415.00
2023-06-04T12:11:49.180Z,416.00
2023-06-04T12:12:49.180Z,416.00
2023-06-04T12:13:49.246Z,415.00
2023-06-04T12:14:49.250Z,414.00
2023-06-04T12:15:49.248Z,413.00
2023-06-04T12:16:49.354Z,412.00
2023-06-04T12:17:49.333Z,414.00
2023-06-04T12:18:49.295Z,414.00
2023-06-04T12:19:49.375Z,414.00
2023-06-04T12:20:49.348Z,413.00
2023-06-04T12:21:49.409Z,414.00
2023-06-04T12:22:49.421Z,414.00
2023-06-04T12:23:49.465Z,413.00
2023-06-04T12:24:49.423Z,415.00
2023-06-04T12:25:49.476Z,414.00
2023-06-04T12:26:49.570Z,412.00
2023-06-04T12:27:49.516Z,412.00
2023-06-04T12:28:49.550Z,412.00